Time;durP1;ratioP1;P1;durP2;ratioP2;P2;SDS_P1;SDS_P2;PMS_P1;PMS_P2;Temp;Humidity;BMP_temperature;BMP_pressure;BME280_temperature;BME280_humidity;BME280_pressure;Samples;Min_cycle;Max_cycle;Signal;HPM_P1;HPM_P2
2023/06/09 00:01:11;;;;;;;10.40;9.50;;;14.10;99.90;;;15.02;93.22;97599.91;5195443;28;20296;-65
2023/06/09 00:03:45;;;;;;;10.18;9.38;;;14.00;99.90;;;14.93;93.71;97602.19;5196837;28;20283;-66
2023/06/09 00:06:22;;;;;;;10.20;9.25;;;13.90;99.90;;;14.92;93.90;97600.44;5194916;28;20235;-66
2023/06/09 00:08:57;;;;;;;10.40;9.60;;;13.90;99.90;;;14.92;93.74;97608.16;5198585;28;20248;-66
2023/06/09 00:11:30;;;;;;;10.95;10.02;;;13.90;99.90;;;14.90;93.18;97609.78;5201235;28;20256;-66
2023/06/09 00:14:03;;;;;;;9.80;9.10;;;13.90;99.90;;;14.86;94.08;97608.81;5199676;28;20242;-66
2023/06/09 00:16:37;;;;;;;11.15;10.25;;;13.90;99.90;;;14.84;94.35;97608.75;5200233;28;20299;-66
2023/06/09 00:19:11;;;;;;;11.52;10.50;;;13.90;99.90;;;14.75;94.06;97610.13;5200730;28;20214;-66
2023/06/09 00:21:49;;;;;;;10.15;9.35;;;13.80;99.90;;;14.68;94.23;97613.25;5195162;28;20232;-66
2023/06/09 00:24:23;;;;;;;10.20;9.40;;;13.70;99.90;;;14.66;94.37;97605.50;5199095;28;20245;-66
2023/06/09 00:26:56;;;;;;;10.70;9.70;;;13.80;99.90;;;14.66;94.56;97608.09;5198736;28;20236;-66
2023/06/09 00:29:29;;;;;;;10.95;9.95;;;13.70;99.90;;;14.69;95.26;97609.91;5199790;28;20681;-66
2023/06/09 00:32:03;;;;;;;10.05;9.32;;;13.80;99.90;;;14.80;94.50;97600.88;5192531;28;20257;-66
2023/06/09 00:34:36;;;;;;;10.13;9.32;;;13.80;99.90;;;14.71;94.72;97604.00;5197099;28;20307;-66
2023/06/09 00:37:11;;;;;;;11.15;10.27;;;13.70;99.90;;;14.58;94.50;97607.78;5199854;28;20268;-66
2023/06/09 00:39:44;;;;;;;11.50;10.52;;;13.70;99.90;;;14.36;95.15;97610.34;5200304;28;20217;-66
2023/06/09 00:42:17;;;;;;;10.70;9.80;;;13.50;99.90;;;14.23;96.06;97613.28;5198186;28;20383;-66
2023/06/09 00:44:50;;;;;;;10.77;9.98;;;13.40;99.90;;;14.34;95.88;97612.00;5198007;28;20662;-66
2023/06/09 00:47:23;;;;;;;12.02;11.13;;;13.50;99.90;;;14.37;96.38;97602.69;5196643;28;20276;-67
2023/06/09 00:49:56;;;;;;;11.35;10.45;;;13.50;99.90;;;14.41;96.64;97604.56;5195127;28;20233;-66
2023/06/09 00:52:31;;;;;;;11.45;10.63;;;13.50;99.90;;;14.36;96.52;97612.91;5196971;28;20721;-66
2023/06/09 00:55:06;;;;;;;11.55;10.55;;;13.50;99.90;;;14.38;96.67;97617.28;5197307;28;20595;-66
2023/06/09 00:57:40;;;;;;;11.35;10.27;;;13.60;99.90;;;14.30;97.40;97616.13;5199048;28;20224;-66
2023/06/09 01:00:16;;;;;;;11.50;10.60;;;13.50;99.90;;;14.27;96.10;97604.84;5196397;28;20230;-68
2023/06/09 01:02:49;;;;;;;11.88;10.90;;;13.40;99.90;;;14.19;97.21;97617.41;5198478;28;20280;-67
2023/06/09 01:05:22;;;;;;;11.43;10.52;;;13.40;99.90;;;14.12;97.84;97615.41;5199571;28;20228;-66
2023/06/09 01:08:03;;;;;;;11.30;10.30;;;13.40;99.90;;;14.13;97.77;97609.44;5196056;28;20558;-66
2023/06/09 01:10:45;;;;;;;11.95;10.95;;;13.40;99.90;;;14.12;97.05;97608.56;5197399;28;20935;-66
2023/06/09 01:13:26;;;;;;;11.65;10.75;;;13.40;99.90;;;14.20;97.08;97617.47;5199204;28;20228;-66
2023/06/09 01:16:06;;;;;;;11.68;10.77;;;13.40;99.90;;;14.27;97.59;97615.13;5198771;28;20648;-67
2023/06/09 01:18:43;;;;;;;11.25;10.45;;;13.50;99.90;;;14.26;97.34;97613.38;5195849;28;20655;-66
2023/06/09 01:21:32;;;;;;;12.00;11.07;;;13.50;99.90;;;14.19;97.23;97608.00;5196273;28;20217;-66
2023/06/09 01:24:29;;;;;;;11.55;10.55;;;13.40;99.90;;;14.14;97.24;97606.09;5196231;28;20233;-66
2023/06/09 01:27:07;;;;;;;11.45;10.55;;;13.40;99.90;;;14.10;97.54;97606.75;5197220;28;20686;-66
2023/06/09 01:29:43;;;;;;;11.88;10.77;;;13.30;99.90;;;13.92;97.72;97602.66;5197434;28;20217;-66
2023/06/09 01:32:18;;;;;;;12.73;11.50;;;13.30;99.90;;;13.92;99.00;97607.78;5197643;28;20271;-65
2023/06/09 01:34:53;;;;;;;11.98;11.07;;;13.20;99.90;;;13.93;97.42;97606.09;5197728;28;20237;-67
2023/06/09 01:37:26;;;;;;;12.82;11.80;;;13.20;99.90;;;13.97;98.35;97610.56;5199125;28;20225;-66
2023/06/09 01:40:00;;;;;;;11.73;10.70;;;13.20;99.90;;;13.84;98.30;97604.03;5194977;28;20245;-66
2023/06/09 01:42:34;;;;;;;11.70;10.80;;;13.10;99.90;;;13.94;98.28;97603.59;5195625;28;20232;-66
2023/06/09 01:45:09;;;;;;;12.73;11.73;;;13.20;99.90;;;13.94;98.24;97601.03;5198203;28;20609;-66
2023/06/09 01:47:42;;;;;;;13.13;12.05;;;13.10;99.90;;;13.83;99.17;97597.16;5194304;28;20623;-66
2023/06/09 01:50:33;;;;;;;13.50;12.32;;;13.10;99.90;;;13.90;98.83;97594.00;5197825;28;20219;-66
2023/06/09 01:53:11;;;;;;;12.43;11.43;;;13.10;99.90;;;13.81;98.36;97592.78;5196347;28;20229;-66
2023/06/09 01:55:52;;;;;;;12.38;11.38;;;13.10;99.90;;;13.80;98.99;97594.47;5197450;28;20233;-66
2023/06/09 01:58:31;;;;;;;12.60;11.55;;;13.10;99.90;;;13.83;99.21;97594.59;5198499;28;20244;-66
2023/06/09 02:01:07;;;;;;;12.75;11.60;;;13.10;99.90;;;13.88;99.00;97595.66;5194081;28;20279;-66
2023/06/09 02:03:42;;;;;;;12.57;11.57;;;13.10;99.90;;;13.87;98.83;97596.44;5199011;28;20225;-66
2023/06/09 02:06:18;;;;;;;13.15;12.00;;;13.10;99.90;;;13.90;98.77;97593.13;5197124;28;20225;-66
2023/06/09 02:08:52;;;;;;;13.40;12.20;;;13.20;99.90;;;13.97;98.82;97605.41;5197832;28;20604;-66
2023/06/09 02:11:26;;;;;;;12.40;11.40;;;13.20;99.90;;;14.01;98.37;97603.84;5194833;28;20229;-66
2023/06/09 02:14:00;;;;;;;11.93;10.82;;;13.20;99.90;;;14.03;98.20;97594.50;5198663;28;20681;-66
2023/06/09 02:16:34;;;;;;;12.60;11.55;;;13.20;99.90;;;14.05;98.90;97598.88;5196000;28;20224;-66
2023/06/09 02:19:08;;;;;;;13.10;11.90;;;13.30;99.90;;;14.04;98.04;97591.97;5195192;28;20224;-66
2023/06/09 02:21:41;;;;;;;12.20;11.20;;;13.20;99.90;;;13.98;99.19;97599.44;5197003;28;20722;-66
2023/06/09 02:24:15;;;;;;;12.18;11.07;;;13.10;99.90;;;13.98;97.69;97602.88;5193069;28;20230;-66
2023/06/09 02:26:51;;;;;;;13.57;12.40;;;13.20;99.90;;;13.91;97.49;97595.78;5196827;28;20228;-66
2023/06/09 02:29:25;;;;;;;12.15;11.15;;;13.10;99.90;;;13.84;97.99;97592.88;5194399;28;20240;-65
2023/06/09 02:32:00;;;;;;;12.55;11.55;;;13.10;99.90;;;13.79;98.30;97591.81;5196044;28;20771;-66
2023/06/09 02:34:34;;;;;;;12.82;11.80;;;13.00;99.90;;;13.65;99.64;97593.81;5197213;28;20299;-66
2023/06/09 02:37:09;;;;;;;12.25;11.25;;;13.00;99.90;;;13.64;99.32;97598.09;5192230;28;20273;-66
2023/06/09 02:39:42;;;;;;;12.85;11.85;;;12.90;99.90;;;13.69;99.38;97595.72;5192779;28;20738;-66
2023/06/09 02:42:15;;;;;;;13.52;12.40;;;12.90;99.90;;;13.72;98.53;97593.28;5189760;28;20222;-66
2023/06/09 02:44:50;;;;;;;14.10;12.90;;;12.90;99.90;;;13.64;99.59;97587.81;5197934;28;20267;-66
2023/06/09 02:47:23;;;;;;;13.88;12.70;;;12.90;99.90;;;13.61;99.43;97594.53;5196245;28;20220;-66
2023/06/09 02:49:56;;;;;;;13.93;12.68;;;12.80;99.90;;;13.52;99.85;97592.47;5197748;28;20314;-66
2023/06/09 02:52:31;;;;;;;13.38;12.27;;;12.80;99.90;;;13.51;99.58;97594.16;5195875;28;20332;-66
2023/06/09 02:55:05;;;;;;;14.40;13.10;;;12.80;99.90;;;13.39;100.00;97598.81;5198040;28;20225;-66
2023/06/09 02:57:39;;;;;;;15.30;14.00;;;12.70;99.90;;;13.46;100.00;97598.22;5195639;28;21081;-66
2023/06/09 03:00:15;;;;;;;14.77;13.40;;;12.70;99.90;;;13.40;100.00;97595.41;5193097;28;20224;-65
2023/06/09 03:02:51;;;;;;;14.85;13.45;;;12.70;99.90;;;13.42;100.00;97592.88;5194476;28;20233;-67
2023/06/09 03:05:24;;;;;;;14.48;13.27;;;12.70;99.90;;;13.46;100.00;97593.09;5197108;28;20237;-66
2023/06/09 03:07:59;;;;;;;14.35;13.25;;;12.70;99.90;;;13.48;100.00;97594.03;5196900;28;20217;-66
2023/06/09 03:10:32;;;;;;;13.13;12.02;;;12.70;99.90;;;13.54;100.00;97589.97;5197048;28;20224;-66
2023/06/09 03:13:06;;;;;;;14.27;13.07;;;12.80;99.90;;;13.65;100.00;97588.69;5197351;28;20696;-66
2023/06/09 03:15:40;;;;;;;13.90;12.80;;;12.80;99.90;;;13.60;100.00;97596.22;5200182;28;20229;-66
2023/06/09 03:18:14;;;;;;;15.10;13.90;;;12.80;99.90;;;13.55;100.00;97594.28;5201535;28;20221;-66
2023/06/09 03:20:48;;;;;;;14.63;13.43;;;12.80;99.90;;;13.51;100.00;97598.44;5198746;28;20716;-66
2023/06/09 03:23:22;;;;;;;14.75;13.55;;;12.80;99.90;;;13.63;99.81;97600.63;5196165;28;20217;-66
2023/06/09 03:25:57;;;;;;;14.43;13.25;;;12.80;99.90;;;13.67;100.00;97599.91;5200840;28;20240;-66
2023/06/09 03:28:30;;;;;;;13.93;12.70;;;12.80;99.90;;;13.67;100.00;97599.91;5199890;28;20228;-66
2023/06/09 03:31:05;;;;;;;13.55;12.45;;;12.80;99.90;;;13.66;100.00;97605.88;5197899;28;20231;-66
2023/06/09 03:33:38;;;;;;;13.05;11.93;;;12.80;99.90;;;13.64;100.00;97602.34;5198698;28;20282;-66
2023/06/09 03:36:11;;;;;;;14.02;12.85;;;12.80;99.90;;;13.65;100.00;97606.66;5200592;28;20245;-66
2023/06/09 03:38:44;;;;;;;13.73;12.63;;;12.80;99.90;;;13.64;100.00;97605.78;5197701;28;20254;-66
2023/06/09 03:41:17;;;;;;;14.27;13.07;;;12.80;99.90;;;13.68;99.77;97601.69;5198604;28;20226;-66
2023/06/09 03:43:50;;;;;;;14.73;13.52;;;12.80;99.90;;;13.67;99.86;97612.75;5195220;28;20251;-66
2023/06/09 03:46:25;;;;;;;13.85;12.70;;;12.80;99.90;;;13.69;99.53;97612.00;5197800;28;20288;-66
2023/06/09 03:48:58;;;;;;;12.90;11.80;;;12.80;99.90;;;13.74;99.44;97612.22;5195432;28;20228;-66
2023/06/09 03:51:31;;;;;;;15.05;13.82;;;12.90;99.90;;;13.78;99.38;97608.94;5195323;28;20276;-66
2023/06/09 03:54:05;;;;;;;13.70;12.60;;;12.90;99.90;;;13.71;100.00;97606.94;5200317;28;20226;-66
2023/06/09 03:56:38;;;;;;;14.00;12.88;;;12.90;99.90;;;13.77;99.52;97602.06;5200497;28;20408;-66
2023/06/09 03:59:11;;;;;;;14.50;13.20;;;12.90;99.90;;;13.83;98.71;97604.88;5200473;28;20222;-66
2023/06/09 04:01:45;;;;;;;14.00;12.80;;;13.00;99.90;;;13.86;98.61;97604.97;5197181;28;20234;-66
2023/06/09 04:04:19;;;;;;;14.25;13.10;;;13.00;99.90;;;13.90;98.56;97604.28;5193052;28;20684;-66
2023/06/09 04:06:52;;;;;;;14.10;12.82;;;13.10;99.90;;;13.92;99.08;97612.94;5199620;28;20225;-66
2023/06/09 04:09:25;;;;;;;14.73;13.38;;;13.10;99.90;;;13.98;98.94;97602.88;5196267;28;20280;-66
2023/06/09 04:11:58;;;;;;;14.82;13.43;;;13.10;99.90;;;14.07;99.21;97606.66;5199386;28;20330;-66
2023/06/09 04:14:31;;;;;;;14.32;13.10;;;13.20;99.90;;;14.06;98.87;97605.78;5199498;28;20234;-66
2023/06/09 04:17:07;;;;;;;14.68;13.52;;;13.20;99.90;;;14.10;98.46;97602.50;5198851;28;20225;-66
2023/06/09 04:19:40;;;;;;;14.30;13.20;;;13.20;99.90;;;14.07;97.68;97609.22;5193193;28;20225;-66
2023/06/09 04:22:13;;;;;;;14.18;13.07;;;13.20;99.90;;;14.10;97.26;97614.47;5199135;28;20218;-66
2023/06/09 04:24:47;;;;;;;12.88;11.77;;;13.20;99.90;;;14.16;96.95;97612.13;5196810;28;20237;-66
2023/06/09 04:27:20;;;;;;;13.98;12.77;;;13.30;99.90;;;14.25;96.57;97612.53;5195762;28;20222;-66
2023/06/09 04:29:53;;;;;;;14.27;13.18;;;13.40;99.90;;;14.31;96.56;97602.47;5197967;28;20233;-66
2023/06/09 04:32:32;;;;;;;13.63;12.63;;;13.50;99.90;;;14.34;96.90;97600.00;5191314;28;20229;-66
2023/06/09 04:35:08;;;;;;;13.88;12.77;;;13.50;99.90;;;14.42;96.44;97605.41;5197863;28;20259;-66
2023/06/09 04:37:41;;;;;;;13.05;12.02;;;13.50;99.90;;;14.52;95.77;97601.56;5195979;28;20240;-66
2023/06/09 04:40:21;;;;;;;14.20;13.10;;;13.70;99.90;;;14.62;95.37;97606.19;5196136;28;20230;-65
2023/06/09 04:42:58;;;;;;;13.25;12.15;;;13.70;99.90;;;14.99;95.45;97599.81;5195493;28;20214;-66
2023/06/09 04:45:34;;;;;;;13.13;12.02;;;14.10;99.90;;;15.46;92.78;97598.03;5193004;28;20703;-66
2023/06/09 04:48:08;;;;;;;13.50;12.32;;;14.60;99.90;;;15.93;88.32;97599.59;5195373;28;20236;-65
2023/06/09 04:50:44;;;;;;;12.68;11.68;;;15.00;99.90;;;16.49;85.80;97604.75;5195498;28;20308;-66
2023/06/09 04:53:19;;;;;;;12.35;11.13;;;15.50;99.90;;;17.12;82.14;97604.00;5198128;28;20230;-66
2023/06/09 04:55:53;;;;;;;12.32;11.43;;;15.80;99.90;;;17.51;78.39;97592.94;5197197;28;20221;-66
2023/06/09 04:58:28;;;;;;;12.27;11.38;;;16.20;99.90;;;18.07;77.03;97605.53;5196674;28;20283;-68
2023/06/09 05:01:01;;;;;;;11.90;10.93;;;16.60;99.90;;;18.58;73.95;97607.56;5188690;28;20218;-67
2023/06/09 05:03:37;;;;;;;11.40;10.50;;;16.80;99.90;;;19.06;72.19;97605.13;5191836;28;20229;-64
2023/06/09 05:06:11;;;;;;;10.90;10.07;;;17.10;99.90;;;19.53;69.66;97601.66;5186740;28;20721;-65
2023/06/09 05:08:45;;;;;;;11.38;10.57;;;17.50;99.90;;;19.83;67.28;97605.66;5192711;28;20314;-66
2023/06/09 05:11:18;;;;;;;11.30;10.40;;;17.70;99.90;;;20.24;66.88;97604.59;5184672;28;20349;-64
2023/06/09 05:13:51;;;;;;;10.98;10.18;;;18.20;99.90;;;20.63;64.28;97603.44;5190390;28;20225;-64
2023/06/09 05:16:27;;;;;;;10.68;9.88;;;18.70;99.90;;;20.99;62.62;97602.13;5190061;28;20646;-63
2023/06/09 05:19:01;;;;;;;11.13;10.25;;;19.00;99.90;;;21.24;60.33;97602.44;5189194;28;20248;-64
2023/06/09 05:21:35;;;;;;;11.48;10.48;;;19.00;99.90;;;21.34;59.48;97599.91;5164278;28;20226;-64
2023/06/09 05:24:09;;;;;;;9.82;9.02;;;19.20;99.90;;;21.43;58.66;97599.16;5186113;28;20578;-66
2023/06/09 05:26:42;;;;;;;10.77;9.98;;;19.20;99.90;;;21.70;58.46;97601.16;5184383;28;20249;-63
2023/06/09 05:29:15;;;;;;;10.52;9.73;;;19.50;99.90;;;21.61;57.71;97597.63;5191936;28;20729;-64
2023/06/09 05:31:49;;;;;;;10.45;9.65;;;19.40;99.90;;;21.95;57.33;97594.44;5186633;28;20745;-64
2023/06/09 05:34:23;;;;;;;10.27;9.48;;;19.60;99.90;;;22.26;55.98;97594.69;5186846;28;21898;-64
2023/06/09 05:36:56;;;;;;;9.80;9.10;;;20.10;99.90;;;22.51;54.83;97602.66;5181957;28;20263;-65
2023/06/09 05:39:30;;;;;;;9.00;8.30;;;20.30;99.90;;;22.68;54.25;97599.25;5191392;28;20248;-65
2023/06/09 05:42:04;;;;;;;9.73;9.02;;;20.50;99.90;;;22.77;53.75;97603.66;5187256;28;20245;-65
2023/06/09 05:44:37;;;;;;;9.27;8.57;;;20.40;99.90;;;23.09;53.44;97608.16;5190868;28;20701;-65
2023/06/09 05:47:10;;;;;;;9.50;8.80;;;20.60;99.90;;;23.21;52.53;97610.81;5185990;28;20243;-64
2023/06/09 05:49:46;;;;;;;9.30;8.60;;;20.80;99.90;;;23.36;52.03;97605.63;5193164;28;20611;-66
2023/06/09 05:52:21;;;;;;;9.00;8.30;;;21.10;99.90;;;23.28;51.65;97609.97;5184395;28;20267;-64
2023/06/09 05:54:55;;;;;;;9.20;8.50;;;21.00;99.90;;;23.52;51.87;97606.53;5196150;28;20229;-65
2023/06/09 05:57:29;;;;;;;8.80;8.20;;;21.30;99.90;;;23.56;51.73;97615.25;5192877;28;20230;-65
2023/06/09 06:00:07;;;;;;;8.77;8.10;;;21.20;99.90;;;23.69;50.92;97601.31;5193343;28;20245;-64
2023/06/09 06:02:42;;;;;;;8.63;7.82;;;21.30;99.90;;;24.12;49.36;97610.94;5191646;28;20229;-64
2023/06/09 06:05:17;;;;;;;8.48;7.78;;;21.80;99.90;;;24.15;50.14;97598.75;5194621;28;20304;-64
2023/06/09 06:07:51;;;;;;;8.65;8.05;;;21.70;99.90;;;24.34;48.68;97607.44;5187112;28;20264;-65
2023/06/09 06:10:24;;;;;;;7.32;6.82;;;22.10;99.20;;;24.63;47.49;97601.31;5195604;28;20233;-64
2023/06/09 06:12:59;;;;;;;9.07;8.32;;;22.20;98.50;;;24.14;48.42;97615.28;5192995;28;20233;-65
2023/06/09 06:15:32;;;;;;;8.65;7.95;;;22.00;98.40;;;24.58;48.16;97609.16;5193885;28;20274;-65
2023/06/09 06:18:05;;;;;;;8.95;8.18;;;22.00;99.20;;;24.87;48.48;97605.59;5193209;28;20275;-66
2023/06/09 06:20:40;;;;;;;8.10;7.50;;;22.30;99.40;;;24.89;48.66;97614.28;5195056;28;20225;-65
2023/06/09 06:23:13;;;;;;;7.97;7.38;;;22.40;99.00;;;25.29;47.13;97614.13;5197038;28;20221;-65
2023/06/09 06:25:47;;;;;;;7.97;7.35;;;22.60;98.20;;;24.80;47.65;97609.97;5194975;28;20222;-64
2023/06/09 06:28:20;;;;;;;7.72;7.13;;;22.50;97.80;;;25.58;46.49;97604.38;5196724;28;20229;-65
2023/06/09 06:30:54;;;;;;;8.00;7.40;;;22.90;98.10;;;26.00;45.78;97599.69;5194983;28;20226;-64
2023/06/09 06:33:29;;;;;;;8.27;7.53;;;23.30;97.30;;;26.57;44.57;97600.94;5193471;28;20228;-65
2023/06/09 06:36:04;;;;;;;7.72;7.13;;;23.60;96.70;;;26.76;43.58;97605.13;5187419;28;20279;-64
2023/06/09 06:38:38;;;;;;;8.05;7.40;;;23.90;95.40;;;27.00;43.29;97617.06;5192385;28;20232;-66
2023/06/09 06:41:11;;;;;;;7.57;6.97;;;24.10;95.40;;;27.44;42.60;97617.38;5191768;28;20595;-66
2023/06/09 06:43:45;;;;;;;8.07;7.47;;;24.50;95.00;;;27.90;41.46;97616.72;5191381;28;20745;-66
2023/06/09 06:46:19;;;;;;;7.13;6.60;;;24.70;94.40;;;28.04;41.34;97615.63;5191938;28;20216;-66
2023/06/09 06:48:52;;;;;;;8.00;7.18;;;25.00;93.60;;;27.63;41.22;97618.84;5194962;28;20271;-66
2023/06/09 06:51:26;;;;;;;6.95;6.35;;;24.90;93.40;;;27.97;41.20;97613.13;5190472;28;20237;-67
2023/06/09 06:54:01;;;;;;;7.25;6.65;;;25.10;93.40;;;28.27;40.74;97615.25;5191359;28;20232;-66
2023/06/09 06:56:34;;;;;;;6.22;5.78;;;25.20;92.80;;;28.15;40.21;97611.94;5189181;28;20221;-66
2023/06/09 06:59:07;;;;;;;6.93;6.43;;;25.60;92.60;;;28.54;39.25;97614.78;5196771;28;20240;-66
2023/06/09 07:01:41;;;;;;;6.45;5.95;;;25.70;91.90;;;28.72;39.69;97611.81;5188831;28;20230;-67
2023/06/09 07:04:15;;;;;;;6.60;6.07;;;26.00;92.30;;;29.19;38.88;97610.88;5188478;28;20641;-67
2023/06/09 07:06:49;;;;;;;6.40;6.00;;;26.40;91.60;;;29.19;38.94;97617.91;5187025;28;20244;-67
2023/06/09 07:09:24;;;;;;;6.75;6.25;;;26.50;90.60;;;29.10;37.80;97615.44;5193140;28;20225;-67
2023/06/09 07:11:57;;;;;;;6.28;5.88;;;26.60;90.20;;;29.12;37.88;97614.53;5187196;28;20247;-68
2023/06/09 07:14:31;;;;;;;6.63;6.07;;;26.70;89.90;;;29.37;36.85;97614.00;5195542;28;20232;-67
2023/06/09 07:17:05;;;;;;;6.45;5.95;;;26.80;89.00;;;29.26;37.29;97610.75;5192561;28;20232;-67
2023/06/09 07:19:38;;;;;;;6.07;5.65;;;26.80;88.10;;;29.96;36.32;97614.44;5195037;28;20753;-68
2023/06/09 07:22:13;;;;;;;6.32;5.82;;;27.50;86.90;;;29.84;36.13;97619.97;5196295;28;20225;-66
2023/06/09 07:24:46;;;;;;;6.10;5.60;;;27.80;85.10;;;29.64;36.90;97618.66;5194169;28;20220;-67
2023/06/09 07:27:19;;;;;;;5.82;5.43;;;27.30;86.60;;;30.02;36.85;97614.28;5196247;28;20276;-67
2023/06/09 07:29:52;;;;;;;5.43;5.13;;;27.60;86.60;;;30.14;36.26;97613.09;5195727;28;20245;-67
2023/06/09 07:32:26;;;;;;;5.68;5.22;;;27.80;86.00;;;30.14;36.31;97613.09;5195638;28;20237;-65
2023/06/09 07:34:59;;;;;;;5.47;5.07;;;27.80;85.60;;;30.03;35.98;97625.69;5193283;28;20311;-67
2023/06/09 07:37:36;;;;;;;5.45;5.05;;;27.70;85.00;;;30.13;36.16;97621.03;5195925;28;20221;-66
2023/06/09 07:40:11;;;;;;;5.32;4.93;;;27.90;84.60;;;29.27;36.56;97625.63;5196767;28;20967;-67
2023/06/09 07:42:51;;;;;;;5.47;4.97;;;27.30;84.00;;;29.33;36.54;97614.97;5190116;28;20228;-67
2023/06/09 07:45:24;;;;;;;5.10;4.80;;;27.30;84.80;;;29.32;36.79;97610.59;5196762;28;20284;-67
2023/06/09 07:47:57;;;;;;;5.53;5.13;;;27.40;84.90;;;29.91;36.42;97615.44;5195338;28;20225;-68
2023/06/09 07:50:31;;;;;;;4.85;4.45;;;27.70;84.90;;;30.08;36.10;97614.13;5197543;28;20279;-67
2023/06/09 07:53:24;;;;;;;4.95;4.55;;;27.90;84.10;;;29.43;36.89;97616.50;5193579;28;20221;-66
2023/06/09 07:55:58;;;;;;;6.10;5.70;;;27.40;84.00;;;29.70;36.68;97611.53;5196007;28;20279;-67
2023/06/09 07:58:31;;;;;;;5.10;4.80;;;27.50;84.60;;;30.26;35.68;97604.03;5188735;28;20587;-67
2023/06/09 08:01:04;;;;;;;4.85;4.55;;;27.80;83.80;;;30.90;34.68;97612.88;5202379;28;20295;-66
2023/06/09 08:03:38;;;;;;;5.50;5.10;;;28.30;82.90;;;30.58;35.36;97612.88;5197829;28;20213;-66
2023/06/09 08:06:11;;;;;;;5.40;5.10;;;28.30;82.50;;;30.90;34.89;97604.94;5195578;28;20225;-67
2023/06/09 08:08:45;;;;;;;4.90;4.50;;;28.20;83.50;;;31.21;34.95;97609.34;5195972;28;20675;-67
2023/06/09 08:11:18;;;;;;;4.93;4.63;;;28.50;83.70;;;31.19;34.14;97611.16;5198052;28;20287;-66
2023/06/09 08:13:51;;;;;;;5.38;4.97;;;28.70;81.60;;;30.45;35.61;97607.94;5195121;28;20637;-66
2023/06/09 08:16:25;;;;;;;5.18;4.88;;;28.30;82.40;;;30.68;34.23;97604.66;5197512;28;20243;-67
2023/06/09 08:18:58;;;;;;;5.32;4.75;;;28.30;80.90;;;30.62;35.00;97610.13;5196098;28;20236;-66
2023/06/09 08:21:31;;;;;;;4.97;4.47;;;28.30;81.30;;;30.18;33.60;97605.97;5197567;28;20316;-66
2023/06/09 08:24:06;;;;;;;4.43;4.13;;;28.40;78.20;;;30.53;33.28;97600.69;5193536;28;20234;-67
2023/06/09 08:26:41;;;;;;;3.95;3.65;;;28.70;77.50;;;30.35;33.66;97606.44;5195254;28;20220;-66
2023/06/09 08:29:14;;;;;;;4.30;4.00;;;28.70;77.00;;;30.16;34.03;97599.84;5198066;28;20220;-66
2023/06/09 08:31:47;;;;;;;3.78;3.58;;;28.70;77.20;;;29.88;33.68;97600.56;5197273;28;20271;-66
2023/06/09 08:34:20;;;;;;;3.85;3.55;;;28.50;76.10;;;29.50;33.86;97593.50;5193958;28;20221;-66
2023/06/09 08:36:54;;;;;;;3.90;3.60;;;28.20;75.10;;;29.29;34.39;97595.72;5201121;28;20229;-66
2023/06/09 08:39:29;;;;;;;3.92;3.63;;;28.10;76.70;;;29.34;34.21;97596.50;5202149;28;20228;-66
2023/06/09 08:42:07;;;;;;;4.05;3.75;;;28.20;75.70;;;28.68;34.93;97583.84;5200302;28;20842;-66
2023/06/09 08:44:42;;;;;;;4.30;3.95;;;27.60;76.50;;;28.42;34.66;97585.19;5195972;28;20252;-67
2023/06/09 08:47:17;;;;;;;4.05;3.75;;;27.40;76.00;;;28.66;35.83;97581.22;5195837;28;20700;-66
2023/06/09 08:49:57;;;;;;;4.28;3.85;;;27.40;77.20;;;28.65;35.96;97584.75;5198046;28;20256;-65
2023/06/09 08:52:31;;;;;;;4.50;4.10;;;27.80;76.80;;;28.35;36.42;97593.19;5190600;28;21102;-68
2023/06/09 08:55:08;;;;;;;3.92;3.63;;;27.50;77.40;;;28.30;35.95;97581.00;5193594;28;21258;-67
2023/06/09 08:57:42;;;;;;;3.67;3.42;;;27.40;76.40;;;28.42;35.43;97584.34;5198751;28;20320;-66
2023/06/09 09:00:17;;;;;;;3.78;3.55;;;27.50;75.80;;;28.54;34.64;97576.22;5196376;28;20654;-65
2023/06/09 09:02:50;;;;;;;4.03;3.72;;;27.80;75.40;;;28.60;35.69;97591.00;5196659;28;20224;-66
2023/06/09 09:05:23;;;;;;;4.15;3.85;;;27.90;75.20;;;28.71;34.88;97587.25;5195773;28;20228;-66
2023/06/09 09:07:57;;;;;;;3.80;3.50;;;28.00;75.30;;;28.96;34.84;97581.50;5193614;28;20566;-66
2023/06/09 09:10:32;;;;;;;3.90;3.60;;;28.30;75.20;;;28.72;34.63;97582.88;5189835;28;20235;-66
2023/06/09 09:13:08;;;;;;;3.80;3.50;;;28.20;73.80;;;28.67;34.66;97590.88;5189900;28;20217;-66
2023/06/09 09:15:48;;;;;;;3.40;3.20;;;28.00;74.70;;;27.94;35.86;97587.75;5189234;28;20222;-65
2023/06/09 09:18:22;;;;;;;3.60;3.30;;;27.30;75.20;;;27.45;36.24;97595.50;5187625;28;20233;-66
2023/06/09 09:20:56;;;;;;;3.80;3.50;;;27.10;74.60;;;27.58;36.70;97594.41;5191919;28;21776;-66
2023/06/09 09:23:31;;;;;;;4.15;3.85;;;27.00;76.40;;;27.33;37.30;97592.16;5190142;28;20651;-65
2023/06/09 09:26:07;;;;;;;4.32;4.03;;;26.70;77.10;;;27.13;37.48;97591.53;5183286;28;20218;-66
2023/06/09 09:28:41;;;;;;;3.95;3.65;;;26.60;77.20;;;27.73;36.93;97591.56;5190253;28;20229;-66
2023/06/09 09:31:14;;;;;;;3.80;3.50;;;27.10;77.70;;;28.02;36.29;97600.78;5189362;28;20224;-64
2023/06/09 09:33:48;;;;;;;3.53;3.25;;;27.50;75.80;;;27.88;36.84;97590.50;5191320;28;20320;-64
2023/06/09 09:36:21;;;;;;;3.88;3.58;;;27.40;76.20;;;28.01;36.50;97575.38;5187619;28;20725;-66
2023/06/09 09:38:57;;;;;;;3.80;3.50;;;27.50;76.10;;;28.12;36.42;97578.69;5193459;28;20302;-66
2023/06/09 09:41:31;;;;;;;3.92;3.63;;;27.70;76.30;;;28.22;36.68;97571.53;5186386;28;20221;-66
2023/06/09 09:44:06;;;;;;;3.90;3.70;;;27.80;76.30;;;28.41;36.78;97582.53;5186819;28;20229;-66
2023/06/09 09:46:40;;;;;;;4.00;3.70;;;27.90;76.10;;;28.32;37.12;97566.94;5186157;28;20716;-66
2023/06/09 09:49:22;;;;;;;4.47;4.07;;;27.80;76.50;;;28.38;36.71;97578.22;5191771;28;20282;-66
2023/06/09 09:51:58;;;;;;;3.65;3.35;;;27.80;76.90;;;28.35;36.56;97574.78;5184420;28;20281;-67
2023/06/09 09:54:31;;;;;;;3.70;3.40;;;27.80;75.70;;;28.13;36.98;97562.03;5189107;28;20259;-66
2023/06/09 09:57:08;;;;;;;4.05;3.75;;;27.50;77.10;;;28.16;36.73;97567.25;5183421;28;20229;-66
2023/06/09 09:59:41;;;;;;;4.00;3.70;;;27.60;75.90;;;28.14;36.63;97558.50;5184577;28;20221;-66
2023/06/09 10:02:23;;;;;;;4.22;3.92;;;27.50;76.80;;;28.18;37.46;97562.78;5188267;28;20225;-67
2023/06/09 10:04:58;;;;;;;3.60;3.38;;;27.60;77.30;;;28.34;36.66;97559.91;5192674;28;20221;-67
2023/06/09 10:07:37;;;;;;;3.67;3.38;;;27.80;76.90;;;28.19;37.30;97564.56;5193358;28;20221;-67
2023/06/09 10:10:12;;;;;;;4.32;4.07;;;27.80;76.40;;;27.98;37.93;97557.88;5194429;28;20634;-66
2023/06/09 10:12:47;;;;;;;4.32;3.92;;;27.60;77.50;;;28.17;37.19;97547.06;5189374;28;20230;-66
2023/06/09 10:15:21;;;;;;;3.72;3.42;;;27.60;77.80;;;27.76;36.71;97554.75;5190567;28;20543;-66
2023/06/09 10:17:55;;;;;;;4.07;3.83;;;27.40;75.60;;;27.65;38.61;97551.44;5196990;28;20287;-66
2023/06/09 10:20:28;;;;;;;3.67;3.47;;;27.10;78.80;;;27.78;38.24;97545.06;5190407;28;20627;-66
2023/06/09 10:23:02;;;;;;;4.10;3.90;;;27.10;79.70;;;27.65;39.09;97546.19;5195363;28;20245;-66
2023/06/09 10:25:35;;;;;;;3.95;3.70;;;27.00;79.70;;;27.70;38.53;97553.97;5196046;28;20226;-66
2023/06/09 10:28:12;;;;;;;3.95;3.75;;;27.00;79.30;;;27.66;38.18;97547.91;5192430;28;20276;-66
2023/06/09 10:30:46;;;;;;;4.07;3.85;;;27.20;78.20;;;27.69;38.28;97549.59;5197131;28;20271;-66
2023/06/09 10:33:25;;;;;;;4.07;3.65;;;27.10;78.30;;;27.76;37.70;97543.38;5192838;28;20321;-66
2023/06/09 10:36:02;;;;;;;3.95;3.65;;;27.20;77.30;;;27.79;37.52;97541.59;5187974;28;20276;-66
2023/06/09 10:38:42;;;;;;;3.67;3.47;;;27.30;77.00;;;27.80;37.38;97534.56;5192409;28;20376;-66
2023/06/09 10:41:22;;;;;;;3.80;3.50;;;27.40;76.90;;;27.80;37.77;97538.06;5187455;28;20304;-66
2023/06/09 10:44:21;;;;;;;5.25;3.88;;;27.30;76.90;;;28.03;37.78;97542.91;5194145;28;20217;-66